createdAt,value
2022-08-05T00:00:16.533Z,70.85
2022-08-05T00:01:21.023Z,70.95
2022-08-05T00:02:16.171Z,71.15
2022-08-05T00:03:15.460Z,70.52
2022-08-05T00:04:15.059Z,70.82
2022-08-05T00:05:27.221Z,70.62
2022-08-05T00:06:28.991Z,70.82
2022-08-05T00:07:27.039Z,70.82
2022-08-05T00:08:32.615Z,70.92
2022-08-05T00:09:19.562Z,70.62
2022-08-05T00:10:14.992Z,70.72
2022-08-05T00:11:23.745Z,70.82
2022-08-05T00:12:15.943Z,70.95
2022-08-05T00:13:18.674Z,71.55
2022-08-05T00:14:17.061Z,71.84
2022-08-05T00:15:55.015Z,71.35
2022-08-05T00:16:16.021Z,71.45
2022-08-05T00:17:18.645Z,71.45
2022-08-05T00:18:21.873Z,71.35
2022-08-05T00:19:15.909Z,70.85
2022-08-05T00:20:14.942Z,71.45
2022-08-05T00:21:15.905Z,70.82
2022-08-05T00:22:14.913Z,71.42
2022-08-05T00:23:14.916Z,71.01
2022-08-05T00:24:16.348Z,71.42
2022-08-05T00:25:16.392Z,70.92
2022-08-05T00:26:14.866Z,71.75
2022-08-05T00:27:16.870Z,71.61
2022-08-05T00:28:14.858Z,71.45
2022-08-05T00:29:15.863Z,71.31
2022-08-05T00:30:14.826Z,71.22
2022-08-05T00:31:14.821Z,71.01
2022-08-05T00:32:15.802Z,71.22
2022-08-05T00:34:41.974Z,71.31
2022-08-05T00:34:56.799Z,71.22
2022-08-05T00:35:15.817Z,71.42
2022-08-05T00:36:18.522Z,70.72
2022-08-05T00:37:15.811Z,71.65
2022-08-05T00:38:14.794Z,71.15
2022-08-05T00:39:14.816Z,71.75
2022-08-05T00:40:14.791Z,71.75
2022-08-05T00:41:14.817Z,71.95
2022-08-05T00:42:31.659Z,71.55
2022-08-05T00:43:15.735Z,71.35
2022-08-05T00:44:15.799Z,71.55
2022-08-05T00:45:14.764Z,71.45
2022-08-05T00:46:14.739Z,71.65
2022-08-05T00:47:14.729Z,71.05
2022-08-05T00:48:14.756Z,72.48
2022-08-05T00:49:14.822Z,72.38
2022-08-05T00:50:14.751Z,72.58
2022-08-05T00:51:51.504Z,72.78
2022-08-05T00:52:15.697Z,72.78
2022-08-05T00:54:00.791Z,72.88
2022-08-05T00:54:15.721Z,73.08
2022-08-05T00:55:14.917Z,73.28
2022-08-05T00:56:14.696Z,73.11
2022-08-05T00:57:14.774Z,73.21
2022-08-05T00:58:14.669Z,74.01
2022-08-05T00:59:14.680Z,73.91
2022-08-05T01:00:14.626Z,73.81
2022-08-05T01:01:14.770Z,73.91
2022-08-05T01:02:14.627Z,73.81
2022-08-05T01:03:22.316Z,73.71
2022-08-05T01:04:15.771Z,74.94
2022-08-05T01:05:14.617Z,74.84
2022-08-05T01:06:15.524Z,74.71
2022-08-05T01:07:14.654Z,73.74
2022-08-05T01:08:40.291Z,73.71
2022-08-05T01:09:15.587Z,73.91
2022-08-05T01:10:14.592Z,73.61
2022-08-05T01:11:14.616Z,73.85
2022-08-05T01:12:18.735Z,74.84
2022-08-05T01:13:22.192Z,74.74
2022-08-05T01:14:15.799Z,74.54
2022-08-05T01:15:35.594Z,73.74
2022-08-05T01:16:15.559Z,74.04
2022-08-05T01:17:15.623Z,74.74
2022-08-05T01:18:14.561Z,74.15
2022-08-05T01:19:14.511Z,74.04
2022-08-05T01:20:14.518Z,73.31
2022-08-05T01:21:22.903Z,73.41
2022-08-05T01:22:18.773Z,73.31
2022-08-05T01:23:23.263Z,73.71
2022-08-05T01:24:15.501Z,73.11
2022-08-05T01:25:14.493Z,73.01
2022-08-05T01:26:14.470Z,72.71
2022-08-05T01:27:19.100Z,72.91
2022-08-05T01:28:14.448Z,73.01
2022-08-05T01:29:14.464Z,73.38
2022-08-05T01:30:19.084Z,73.57
2022-08-05T01:31:15.586Z,73.57
2022-08-05T01:32:18.529Z,74.47
2022-08-05T01:33:14.491Z,74.67
2022-08-05T01:34:15.443Z,74.87
2022-08-05T01:35:52.125Z,75.43
2022-08-05T01:36:16.066Z,74.50
2022-08-05T01:37:18.011Z,74.90
2022-08-05T01:38:24.665Z,73.54
2022-08-05T01:39:15.449Z,73.50
2022-08-05T01:40:17.959Z,73.80
2022-08-05T01:41:14.426Z,73.11
2022-08-05T01:42:14.354Z,73.11
2022-08-05T01:43:22.437Z,74.13
2022-08-05T01:44:16.378Z,74.77
2022-08-05T01:45:14.317Z,75.10
2022-08-05T01:46:16.293Z,76.37
2022-08-05T01:47:15.311Z,77.81
2022-08-05T01:48:14.300Z,78.41
2022-08-05T01:49:23.972Z,78.20
2022-08-05T01:50:15.972Z,77.57
2022-08-05T01:51:14.289Z,78.56
2022-08-05T01:52:17.856Z,78.13
2022-08-05T01:53:14.281Z,78.83
2022-08-05T01:54:15.300Z,78.33
2022-08-05T01:55:14.271Z,76.79
2022-08-05T01:58:09.365Z,75.60
2022-08-05T01:58:09.487Z,77.29
2022-08-05T01:58:15.942Z,76.90
2022-08-05T01:59:15.243Z,79.86
2022-08-05T02:00:14.247Z,82.03
2022-08-05T02:01:14.219Z,82.97
2022-08-05T02:02:14.296Z,85.21
2022-08-05T02:03:24.286Z,86.45
2022-08-05T02:04:15.190Z,87.49
2022-08-05T02:05:14.230Z,88.13
2022-08-05T02:06:33.450Z,89.98
2022-08-05T02:07:21.666Z,91.32
2022-08-05T02:08:15.164Z,91.66
2022-08-05T02:09:16.455Z,92.67
2022-08-05T02:10:17.297Z,93.07
2022-08-05T02:11:14.136Z,92.67
2022-08-05T02:12:15.160Z,91.27
2022-08-05T02:13:16.119Z,91.32
2022-08-05T02:14:14.142Z,92.16
2022-08-05T02:15:14.126Z,92.16
2022-08-05T02:16:16.446Z,93.27
2022-08-05T02:17:29.955Z,93.27
2022-08-05T02:18:33.259Z,93.07
2022-08-05T02:19:15.140Z,92.67
2022-08-05T02:20:14.105Z,92.07
2022-08-05T02:21:15.563Z,93.07
2022-08-05T02:22:25.624Z,93.31
2022-08-05T02:23:15.077Z,93.07
2022-08-05T02:24:14.073Z,93.91
2022-08-05T02:25:14.073Z,94.01
2022-08-05T02:26:14.087Z,94.31
2022-08-05T02:27:14.038Z,95.32
2022-08-05T02:28:14.098Z,95.72
2022-08-05T02:29:21.688Z,95.36
2022-08-05T02:30:15.043Z,95.42
2022-08-05T02:31:14.849Z,96.26
2022-08-05T02:32:19.818Z,96.26
2022-08-05T02:33:15.021Z,95.97
2022-08-05T02:34:15.009Z,95.97
2022-08-05T02:35:14.539Z,95.66
2022-08-05T02:36:15.623Z,95.86
2022-08-05T02:37:13.966Z,95.21
2022-08-05T02:38:19.365Z,95.26
2022-08-05T02:39:15.030Z,95.26
2022-08-05T02:40:13.967Z,95.26
2022-08-05T02:41:17.233Z,95.42
2022-08-05T02:42:22.506Z,95.36
2022-08-05T02:43:15.356Z,95.97
2022-08-05T02:44:14.966Z,95.47
2022-08-05T02:45:13.901Z,95.72
2022-08-05T02:46:16.445Z,96.47
2022-08-05T02:47:13.935Z,96.36
2022-08-05T02:48:13.894Z,96.06
2022-08-05T02:49:13.923Z,95.47
2022-08-05T02:50:13.902Z,96.06
2022-08-05T02:51:13.851Z,96.26
2022-08-05T02:52:30.262Z,95.32
2022-08-05T02:53:18.876Z,95.21
2022-08-05T02:54:36.532Z,95.47
2022-08-05T02:55:14.891Z,95.47
2022-08-05T02:56:18.633Z,96.26
2022-08-05T02:58:11.485Z,96.17
2022-08-05T02:58:14.896Z,95.36
2022-08-05T02:59:13.818Z,95.66
2022-08-05T03:00:13.836Z,94.71
2022-08-05T03:01:13.849Z,95.12
2022-08-05T03:02:13.826Z,95.52
2022-08-05T03:03:13.799Z,95.01
2022-08-05T03:04:14.491Z,94.07
2022-08-05T03:05:13.815Z,93.87
2022-08-05T03:06:56.560Z,93.57
2022-08-05T03:07:24.722Z,93.97
2022-08-05T03:08:15.041Z,94.57
2022-08-05T03:09:15.913Z,93.62
2022-08-05T03:10:13.752Z,92.98
2022-08-05T03:11:57.093Z,91.98
2022-08-05T03:12:14.720Z,90.28
2022-08-05T03:13:16.880Z,90.78
2022-08-05T03:14:13.875Z,90.78
2022-08-05T03:15:13.754Z,90.67
2022-08-05T03:16:15.656Z,90.33
2022-08-05T03:17:13.682Z,90.44
2022-08-05T03:18:13.694Z,90.33
2022-08-05T03:19:24.714Z,90.53
2022-08-05T03:20:14.689Z,90.58
2022-08-05T03:21:13.905Z,89.94
2022-08-05T03:22:16.556Z,89.73
2022-08-05T03:23:14.668Z,89.87
2022-08-05T03:24:13.677Z,90.73
2022-08-05T03:25:32.552Z,90.83
2022-08-05T03:26:30.873Z,89.69
2022-08-05T03:27:14.653Z,89.14
2022-08-05T03:28:13.971Z,89.09
2022-08-05T03:29:17.320Z,88.79
2022-08-05T03:30:13.593Z,89.19
2022-08-05T03:31:18.331Z,89.39
2022-08-05T03:32:14.646Z,88.55
2022-08-05T03:33:13.609Z,87.75
2022-08-05T03:34:13.569Z,87.55
2022-08-05T03:35:13.564Z,87.55
2022-08-05T03:36:13.567Z,87.05
2022-08-05T03:37:13.594Z,88.29
2022-08-05T03:38:14.557Z,89.23
2022-08-05T03:39:20.127Z,90.37
2022-08-05T03:40:15.459Z,91.72
2022-08-05T03:41:14.538Z,91.72
2022-08-05T03:42:13.536Z,92.22
2022-08-05T03:43:59.294Z,92.12
2022-08-05T03:44:19.868Z,91.97
2022-08-05T03:45:21.778Z,93.07
2022-08-05T03:46:14.507Z,92.47
2022-08-05T03:47:13.528Z,93.23
2022-08-05T03:48:13.535Z,91.48
2022-08-05T03:49:14.981Z,90.73
2022-08-05T03:50:13.478Z,89.94
2022-08-05T03:52:38.009Z,90.33
2022-08-05T03:52:38.144Z,91.32
2022-08-05T03:55:33.995Z,91.48
2022-08-05T03:56:01.222Z,91.12
2022-08-05T03:56:04.837Z,91.58
2022-08-05T03:56:27.773Z,90.88
2022-08-05T03:57:34.270Z,90.28
2022-08-05T03:58:14.434Z,89.83
2022-08-05T03:59:13.441Z,89.53
2022-08-05T04:00:15.465Z,89.73
2022-08-05T04:01:13.582Z,89.43
2022-08-05T04:02:17.616Z,88.99
2022-08-05T04:03:28.250Z,88.29
2022-08-05T04:04:14.431Z,87.39
2022-08-05T04:05:14.354Z,87.45
2022-08-05T04:06:13.390Z,87.11
2022-08-05T04:07:13.365Z,86.61
2022-08-05T04:08:14.472Z,86.01
2022-08-05T04:09:14.351Z,86.51
2022-08-05T04:10:14.365Z,85.71
2022-08-05T04:11:13.332Z,85.91
2022-08-05T04:12:23.720Z,85.67
2022-08-05T04:13:14.305Z,85.37
2022-08-05T04:14:17.972Z,85.07
2022-08-05T04:15:15.505Z,85.11
2022-08-05T04:16:14.303Z,85.11
2022-08-05T04:17:13.284Z,86.95
2022-08-05T04:18:20.225Z,86.75
2022-08-05T04:19:15.252Z,86.65
2022-08-05T04:20:15.334Z,86.85
2022-08-05T04:21:13.260Z,86.95
2022-08-05T04:22:14.238Z,86.95
2022-08-05T04:23:15.963Z,87.29
2022-08-05T04:24:18.682Z,88.19
2022-08-05T04:25:14.214Z,88.33
2022-08-05T04:26:13.605Z,88.83
2022-08-05T04:27:13.218Z,89.03
2022-08-05T04:28:13.252Z,89.43
2022-08-05T04:29:13.187Z,89.73
2022-08-05T04:30:13.182Z,89.09
2022-08-05T04:31:13.199Z,88.99
2022-08-05T04:32:13.162Z,88.59
2022-08-05T04:33:13.193Z,88.59
2022-08-05T04:34:31.434Z,87.55
2022-08-05T04:35:19.420Z,86.85
2022-08-05T04:36:38.550Z,86.71
2022-08-05T04:37:14.129Z,87.21
2022-08-05T04:38:15.592Z,85.81
2022-08-05T04:39:13.181Z,86.01
2022-08-05T04:40:13.145Z,85.55
2022-08-05T04:41:14.116Z,87.49
2022-08-05T04:42:13.100Z,87.25
2022-08-05T04:43:16.624Z,87.45
2022-08-05T04:44:13.100Z,87.05
2022-08-05T04:45:14.128Z,86.65
2022-08-05T04:46:14.076Z,87.39
2022-08-05T04:47:20.038Z,88.87
2022-08-05T04:48:18.637Z,90.02
2022-08-05T04:49:14.805Z,90.17
2022-08-05T04:50:13.088Z,90.48
2022-08-05T04:51:14.075Z,89.33
2022-08-05T04:52:13.172Z,88.73
2022-08-05T04:53:13.009Z,88.93
2022-08-05T04:54:13.091Z,89.23
2022-08-05T04:55:14.178Z,89.29
2022-08-05T04:56:34.017Z,89.14
2022-08-05T04:57:15.009Z,88.25
2022-08-05T04:58:13.037Z,87.59
2022-08-05T04:59:21.696Z,88.93
2022-08-05T05:00:14.028Z,90.63
2022-08-05T05:01:13.012Z,91.38
2022-08-05T05:02:36.541Z,91.32
2022-08-05T05:03:14.007Z,91.82
2022-08-05T05:04:12.964Z,92.52
2022-08-05T05:05:16.946Z,92.82
2022-08-05T05:06:39.000Z,92.97
2022-08-05T05:07:15.904Z,94.27
2022-08-05T05:08:14.200Z,93.62
2022-08-05T05:09:14.265Z,92.88
2022-08-05T05:10:12.926Z,92.33
2022-08-05T05:11:15.321Z,91.17
2022-08-05T05:12:12.879Z,91.93
2022-08-05T05:13:12.884Z,91.38
2022-08-05T05:14:16.010Z,91.38
2022-08-05T05:15:12.912Z,92.18
2022-08-05T05:16:12.888Z,91.88
2022-08-05T05:17:12.845Z,92.28
2022-08-05T05:18:12.849Z,91.88
2022-08-05T05:19:23.489Z,92.68
2022-08-05T05:20:14.874Z,91.93
2022-08-05T05:21:12.843Z,92.18
2022-08-05T05:22:23.943Z,92.08
2022-08-05T05:23:19.519Z,93.08
2022-08-05T05:24:13.828Z,93.18
2022-08-05T05:25:16.393Z,92.52
2022-08-05T05:26:12.800Z,92.93
2022-08-05T05:27:12.769Z,93.93
2022-08-05T05:28:12.770Z,94.12
2022-08-05T05:29:14.602Z,93.82
2022-08-05T05:30:15.350Z,94.47
2022-08-05T05:31:13.807Z,94.23
2022-08-05T05:32:15.662Z,94.38
2022-08-05T05:33:16.888Z,93.89
2022-08-05T05:34:12.762Z,92.49
2022-08-05T05:35:12.717Z,91.25
2022-08-05T05:36:14.660Z,89.85
2022-08-05T05:37:12.731Z,88.85
2022-08-05T05:38:13.094Z,88.31
2022-08-05T05:39:12.748Z,87.87
2022-08-05T05:40:12.706Z,86.97
2022-08-05T05:41:12.716Z,87.07
2022-08-05T05:42:12.672Z,87.37
2022-08-05T05:43:12.717Z,87.27
2022-08-05T05:44:35.680Z,87.32
2022-08-05T05:45:14.102Z,86.33
2022-08-05T05:46:17.395Z,86.43
2022-08-05T05:47:22.165Z,86.93
2022-08-05T05:48:16.112Z,86.68
2022-08-05T05:49:22.916Z,85.63
2022-08-05T05:50:16.411Z,85.78
2022-08-05T05:51:15.636Z,84.89
2022-08-05T05:52:13.364Z,85.83
2022-08-05T05:53:21.538Z,88.25
2022-08-05T05:54:13.620Z,88.81
2022-08-05T05:55:13.491Z,88.75
2022-08-05T05:56:12.590Z,88.51
2022-08-05T05:57:13.464Z,88.01
2022-08-05T05:58:12.575Z,88.55
2022-08-05T05:59:12.557Z,88.65
2022-08-05T06:00:12.557Z,89.15
2022-08-05T06:01:15.226Z,89.75
2022-08-05T06:02:12.635Z,90.05
2022-08-05T06:03:39.584Z,90.25
2022-08-05T06:04:14.558Z,89.70
2022-08-05T06:05:16.866Z,88.60
2022-08-05T06:06:12.549Z,87.16
2022-08-05T06:07:12.505Z,87.41
2022-08-05T06:08:12.518Z,89.45
2022-08-05T06:09:17.495Z,89.83
2022-08-05T06:10:13.507Z,89.79
2022-08-05T06:11:13.468Z,89.99
2022-08-05T06:12:12.523Z,90.29
2022-08-05T06:13:12.586Z,90.35
2022-08-05T06:14:12.484Z,89.75
2022-08-05T06:15:23.604Z,89.11
2022-08-05T06:16:29.145Z,88.60
2022-08-05T06:17:24.503Z,88.67
2022-08-05T06:18:13.569Z,88.02
2022-08-05T06:19:12.524Z,87.12
2022-08-05T06:20:18.846Z,87.73
2022-08-05T06:21:18.635Z,87.87
2022-08-05T06:22:13.486Z,88.60
2022-08-05T06:23:12.379Z,89.55
2022-08-05T06:24:12.868Z,90.33
2022-08-05T06:25:24.406Z,91.03
2022-08-05T06:26:21.349Z,92.48
2022-08-05T06:28:08.974Z,92.58
2022-08-05T06:28:21.255Z,93.82
2022-08-05T06:29:42.878Z,93.93
2022-08-05T06:30:17.772Z,93.82
2022-08-05T06:31:18.039Z,93.82
2022-08-05T06:32:26.357Z,93.28
2022-08-05T06:33:13.301Z,93.68
2022-08-05T06:34:13.308Z,94.43
2022-08-05T06:35:15.453Z,93.32
2022-08-05T06:36:13.311Z,93.48
2022-08-05T06:37:39.317Z,94.04
2022-08-05T06:38:13.318Z,93.13
2022-08-05T06:39:12.336Z,91.63
2022-08-05T06:40:12.269Z,92.54
2022-08-05T06:41:12.413Z,93.08
2022-08-05T06:42:12.289Z,93.78
2022-08-05T06:43:57.478Z,94.18
2022-08-05T06:44:13.273Z,94.12
2022-08-05T06:45:21.142Z,94.53
2022-08-05T06:46:13.276Z,94.43
2022-08-05T06:47:21.662Z,94.27
2022-08-05T06:48:53.831Z,94.97
2022-08-05T06:49:13.285Z,94.77
2022-08-05T06:50:12.222Z,95.12
2022-08-05T06:51:22.793Z,95.23
2022-08-05T06:52:38.115Z,96.03
2022-08-05T06:53:22.469Z,94.18
2022-08-05T06:54:19.081Z,94.02
2022-08-05T06:55:13.849Z,93.58
2022-08-05T06:56:26.269Z,94.23
2022-08-05T06:57:57.715Z,94.43
2022-08-05T06:58:29.120Z,94.48
2022-08-05T06:59:13.132Z,94.08
2022-08-05T07:00:12.531Z,94.48
2022-08-05T07:01:13.405Z,94.12
2022-08-05T07:02:12.183Z,93.98
2022-08-05T07:03:12.123Z,94.48
2022-08-05T07:04:13.903Z,95.28
2022-08-05T07:05:18.488Z,94.68
2022-08-05T07:06:15.175Z,93.98
2022-08-05T07:07:12.138Z,93.88
2022-08-05T07:08:12.141Z,93.78
2022-08-05T07:09:12.101Z,93.68
2022-08-05T07:10:14.822Z,93.93
2022-08-05T07:11:15.549Z,93.58
2022-08-05T07:12:12.046Z,93.88
2022-08-05T07:13:12.061Z,93.58
2022-08-05T07:14:15.342Z,94.12
2022-08-05T07:15:12.035Z,93.82
2022-08-05T07:16:13.109Z,95.62
2022-08-05T07:17:58.199Z,94.68
2022-08-05T07:18:19.529Z,94.82
2022-08-05T07:19:16.147Z,94.38
2022-08-05T07:21:13.973Z,92.74
2022-08-05T07:22:12.984Z,93.79
2022-08-05T07:23:13.008Z,92.85
2022-08-05T07:24:12.998Z,92.55
2022-08-05T07:25:54.728Z,91.20
2022-08-05T07:26:13.961Z,89.61
2022-08-05T07:27:12.017Z,89.20
2022-08-05T07:28:17.109Z,89.81
2022-08-05T07:29:13.958Z,89.26
2022-08-05T07:30:27.962Z,89.66
2022-08-05T07:31:12.938Z,89.02
2022-08-05T07:32:11.921Z,87.62
2022-08-05T07:33:16.122Z,87.58
2022-08-05T07:34:14.082Z,87.24
2022-08-05T07:36:05.300Z,86.74
2022-08-05T07:36:20.557Z,85.35
2022-08-05T07:37:12.867Z,85.14
2022-08-05T07:38:12.264Z,85.78
2022-08-05T07:39:50.332Z,86.22
2022-08-05T07:40:32.048Z,87.02
2022-08-05T07:42:06.922Z,86.52
2022-08-05T07:42:16.172Z,87.62
2022-08-05T07:43:14.462Z,86.13
2022-08-05T07:44:18.725Z,86.52
2022-08-05T07:45:12.844Z,87.62
2022-08-05T07:46:24.736Z,87.76
2022-08-05T07:47:14.829Z,89.20
2022-08-05T07:48:11.867Z,88.31
2022-08-05T07:49:11.773Z,88.86
2022-08-05T07:50:11.817Z,88.37
2022-08-05T07:51:23.409Z,88.12
2022-08-05T07:52:12.795Z,87.23
2022-08-05T07:53:13.335Z,87.62
2022-08-05T07:54:12.685Z,87.42
2022-08-05T07:55:16.036Z,87.58
2022-08-05T07:57:00.645Z,86.49
2022-08-05T07:57:22.694Z,85.25
2022-08-05T07:58:17.760Z,86.04
2022-08-05T07:59:12.712Z,85.00
2022-08-05T08:00:11.747Z,85.00
2022-08-05T08:01:12.266Z,85.60
2022-08-05T08:02:16.001Z,85.57
2022-08-05T08:03:14.787Z,85.16
2022-08-05T08:04:11.941Z,84.03
2022-08-05T08:05:11.675Z,83.03
2022-08-05T08:06:12.016Z,82.34
2022-08-05T08:07:11.698Z,83.03
2022-08-05T08:08:12.285Z,83.00
2022-08-05T08:09:11.637Z,82.70
2022-08-05T08:10:11.626Z,83.15
2022-08-05T08:11:15.923Z,82.86
2022-08-05T08:12:27.199Z,80.83
2022-08-05T08:13:13.645Z,79.50
2022-08-05T08:14:12.655Z,80.25
2022-08-05T08:15:15.456Z,79.72
2022-08-05T08:16:35.713Z,78.03
2022-08-05T08:17:15.814Z,77.99
2022-08-05T08:18:14.341Z,78.49
2022-08-05T08:20:10.024Z,75.91
2022-08-05T08:20:42.926Z,75.51
2022-08-05T08:21:15.992Z,75.21
2022-08-05T08:22:15.965Z,74.79
2022-08-05T08:24:02.891Z,75.09
2022-08-05T08:24:14.126Z,78.47
2022-08-05T08:25:16.251Z,79.99
2022-08-05T08:26:11.533Z,78.80
2022-08-05T08:27:11.553Z,78.30
2022-08-05T08:28:18.123Z,79.30
2022-08-05T08:29:45.117Z,79.10
2022-08-05T08:30:29.810Z,78.60
2022-08-05T08:31:15.032Z,78.30
2022-08-05T08:32:12.512Z,77.31
2022-08-05T08:33:13.883Z,76.78
2022-08-05T08:34:11.514Z,76.51
2022-08-05T08:35:13.414Z,77.27
2022-08-05T08:36:38.279Z,76.78
2022-08-05T08:37:13.478Z,77.08
2022-08-05T08:38:16.365Z,78.42
2022-08-05T08:39:14.881Z,76.93
2022-08-05T08:40:11.435Z,77.99
2022-08-05T08:41:14.186Z,75.61
2022-08-05T08:42:46.748Z,75.21
2022-08-05T08:45:20.047Z,75.21
2022-08-05T08:45:22.264Z,76.21
2022-08-05T08:45:23.663Z,75.38
2022-08-05T08:46:15.609Z,75.08
2022-08-05T08:47:47.651Z,76.92
2022-08-05T08:48:42.713Z,76.23
2022-08-05T08:50:05.963Z,75.93
2022-08-05T08:50:30.107Z,74.71
2022-08-05T08:52:01.632Z,74.91
2022-08-05T08:52:13.762Z,74.95
2022-08-05T08:53:12.153Z,73.75
2022-08-05T08:54:11.358Z,73.55
2022-08-05T08:55:13.489Z,73.95
2022-08-05T08:56:11.686Z,75.04
2022-08-05T08:57:13.453Z,74.44
2022-08-05T08:58:13.028Z,74.44
2022-08-05T08:59:19.256Z,74.25
2022-08-05T09:00:12.577Z,75.14
2022-08-05T09:01:16.727Z,74.19
2022-08-05T09:02:12.428Z,73.29
2022-08-05T09:03:11.359Z,74.02
2022-08-05T09:04:11.358Z,75.41
2022-08-05T09:05:16.634Z,74.91
2022-08-05T09:06:16.958Z,74.82
2022-08-05T09:07:19.723Z,75.31
2022-08-05T09:08:12.289Z,75.95
2022-08-05T09:09:11.278Z,74.65
2022-08-05T09:10:11.516Z,74.35
2022-08-05T09:11:12.313Z,74.19
2022-08-05T09:12:20.798Z,74.79
2022-08-05T09:13:13.300Z,75.29
2022-08-05T09:14:57.272Z,75.12
2022-08-05T09:15:12.227Z,75.42
2022-08-05T09:16:14.710Z,76.18
2022-08-05T09:17:15.970Z,75.38
2022-08-05T09:18:13.368Z,75.38
2022-08-05T09:19:12.003Z,75.38
2022-08-05T09:20:11.203Z,74.89
2022-08-05T09:21:11.448Z,74.99
2022-08-05T09:22:22.911Z,75.09
2022-08-05T09:23:19.205Z,75.35
2022-08-05T09:24:12.141Z,75.05
2022-08-05T09:25:14.091Z,74.55
2022-08-05T09:26:15.850Z,74.32
2022-08-05T09:27:12.187Z,73.53
2022-08-05T09:28:13.023Z,72.93
2022-08-05T09:29:11.138Z,73.49
2022-08-05T09:30:16.448Z,74.65
2022-08-05T09:31:44.173Z,72.86
2022-08-05T09:32:42.950Z,72.47
2022-08-05T09:33:15.377Z,72.47
2022-08-05T09:34:13.006Z,72.10
2022-08-05T09:35:11.223Z,70.42
2022-08-05T09:36:16.487Z,70.85
2022-08-05T09:37:15.144Z,70.75
2022-08-05T09:38:18.357Z,72.14
2022-08-05T09:39:18.297Z,72.57
2022-08-05T09:40:12.061Z,73.07
2022-08-05T09:41:11.093Z,73.07
2022-08-05T09:42:13.616Z,72.86
2022-08-05T09:43:12.122Z,73.20
2022-08-05T09:44:11.112Z,72.86
2022-08-05T09:46:05.273Z,72.37
2022-08-05T09:46:12.103Z,73.13
2022-08-05T09:47:12.605Z,72.00
2022-08-05T09:48:11.029Z,71.97
2022-08-05T09:49:18.812Z,70.84
2022-08-05T09:50:12.002Z,70.54
2022-08-05T09:51:14.958Z,69.13
2022-08-05T09:52:11.182Z,69.59
2022-08-05T09:53:17.095Z,68.80
2022-08-05T09:54:11.952Z,69.98
2022-08-05T09:55:59.048Z,69.49
2022-08-05T09:56:12.937Z,68.50
2022-08-05T09:57:23.544Z,68.40
2022-08-05T09:58:11.925Z,68.80
2022-08-05T09:59:11.242Z,69.02
2022-08-05T10:00:11.951Z,68.86
2022-08-05T10:01:15.310Z,69.65
2022-08-05T10:02:11.932Z,69.69
2022-08-05T10:03:10.906Z,70.78
2022-08-05T10:04:11.028Z,70.68
2022-08-05T10:05:11.204Z,70.42
2022-08-05T10:06:15.419Z,71.21
2022-08-05T10:07:21.073Z,71.51
2022-08-05T10:08:36.434Z,71.11
2022-08-05T10:09:27.428Z,71.04
2022-08-05T10:10:14.935Z,71.25
2022-08-05T10:11:10.845Z,70.91
2022-08-05T10:12:31.102Z,71.21
2022-08-05T10:13:12.387Z,70.91
2022-08-05T10:14:11.306Z,71.21
2022-08-05T10:15:11.218Z,71.08
2022-08-05T10:16:10.854Z,70.48
2022-08-05T10:17:36.851Z,70.84
2022-08-05T10:18:12.912Z,70.51
2022-08-05T10:19:11.810Z,70.28
2022-08-05T10:20:12.002Z,68.70
2022-08-05T10:21:15.811Z,68.53
2022-08-05T10:22:15.695Z,68.63
2022-08-05T10:23:34.534Z,68.20
2022-08-05T10:24:11.806Z,68.30
2022-08-05T10:25:10.870Z,66.29
2022-08-05T10:26:14.408Z,66.29
2022-08-05T10:27:10.878Z,67.58
2022-08-05T10:28:16.959Z,65.90
2022-08-05T10:29:11.786Z,64.68
2022-08-05T10:32:48.751Z,63.72
2022-08-05T10:32:49.008Z,64.64
2022-08-05T10:32:54.991Z,64.45
2022-08-05T10:33:14.945Z,64.87
2022-08-05T10:34:10.745Z,66.06
2022-08-05T10:35:10.791Z,65.56
2022-08-05T10:36:10.941Z,65.56
2022-08-05T10:37:10.742Z,65.86
2022-08-05T10:38:11.729Z,64.78
2022-08-05T10:39:15.002Z,65.40
2022-08-05T10:40:17.895Z,65.30
2022-08-05T10:41:12.387Z,66.19
2022-08-05T10:42:11.409Z,64.61
2022-08-05T10:43:11.109Z,66.29
2022-08-05T10:44:10.693Z,66.02
2022-08-05T10:45:23.275Z,66.78
2022-08-05T10:46:11.864Z,66.72
2022-08-05T10:47:26.127Z,65.80
2022-08-05T10:48:29.835Z,66.22
2022-08-05T10:49:16.738Z,65.03
2022-08-05T10:50:32.108Z,65.92
2022-08-05T10:51:22.115Z,66.32
2022-08-05T10:52:11.708Z,65.83
2022-08-05T10:53:11.651Z,66.32
2022-08-05T10:54:28.559Z,65.83
2022-08-05T10:55:11.678Z,65.73
2022-08-05T10:56:14.613Z,66.62
2022-08-05T10:57:11.636Z,66.82
2022-08-05T10:58:11.247Z,66.22
2022-08-05T11:00:01.192Z,66.58
2022-08-05T11:00:14.773Z,66.72
2022-08-05T11:01:12.572Z,65.00
2022-08-05T11:02:14.521Z,66.42
2022-08-05T11:03:23.042Z,67.68
2022-08-05T11:04:11.628Z,66.49
2022-08-05T11:05:10.660Z,66.49
2022-08-05T11:06:15.006Z,66.06
2022-08-05T11:07:11.559Z,65.20
2022-08-05T11:08:36.714Z,64.61
2022-08-05T11:09:13.221Z,65.00
2022-08-05T11:10:10.610Z,65.80
2022-08-05T11:11:16.595Z,64.54
2022-08-05T11:12:12.534Z,65.92
2022-08-05T11:13:10.563Z,66.13
2022-08-05T11:14:10.517Z,66.19
2022-08-05T11:15:19.004Z,64.51
2022-08-05T11:16:11.493Z,65.40
2022-08-05T11:17:58.089Z,65.00
2022-08-05T11:18:12.657Z,65.00
2022-08-05T11:20:17.397Z,65.10
2022-08-05T11:20:18.413Z,64.70
2022-08-05T11:21:12.124Z,64.87
2022-08-05T11:22:10.499Z,64.97
2022-08-05T11:23:10.579Z,64.67
2022-08-05T11:24:29.791Z,62.70
2022-08-05T11:26:02.931Z,63.19
2022-08-05T11:26:11.456Z,63.52
2022-08-05T11:27:10.424Z,63.98
2022-08-05T11:28:10.405Z,63.62
2022-08-05T11:29:13.730Z,63.98
2022-08-05T11:30:10.536Z,64.41
2022-08-05T11:31:10.453Z,63.98
2022-08-05T11:32:10.415Z,62.99
2022-08-05T11:33:13.711Z,62.96
2022-08-05T11:34:14.808Z,63.06
2022-08-05T11:35:10.373Z,62.57
2022-08-05T11:36:11.432Z,62.93
2022-08-05T11:38:28.187Z,62.44
2022-08-05T11:38:29.890Z,62.44
2022-08-05T11:39:12.406Z,61.85
2022-08-05T11:40:10.375Z,62.07
2022-08-05T11:41:34.445Z,62.96
2022-08-05T11:42:11.366Z,62.57
2022-08-05T11:43:11.368Z,63.95
2022-08-05T11:44:10.437Z,62.07
2022-08-05T11:45:14.420Z,62.37
2022-08-05T11:46:30.749Z,61.78
2022-08-05T11:47:15.246Z,61.48
2022-08-05T11:48:11.605Z,62.07
2022-08-05T11:49:10.345Z,63.36
2022-08-05T11:50:10.364Z,62.96
2022-08-05T11:51:10.829Z,62.96
2022-08-05T11:52:11.839Z,62.57
2022-08-05T11:53:10.379Z,62.10
2022-08-05T11:54:10.249Z,61.80
2022-08-05T11:55:10.691Z,62.50
2022-08-05T11:56:11.398Z,62.43
2022-08-05T11:57:25.425Z,63.71
2022-08-05T11:58:12.112Z,63.62
2022-08-05T11:59:13.776Z,63.62
2022-08-05T12:00:10.230Z,63.95
2022-08-05T12:01:10.442Z,64.94
2022-08-05T12:02:24.232Z,64.54
2022-08-05T12:03:11.427Z,63.85
2022-08-05T12:04:10.259Z,63.58
2022-08-05T12:05:18.047Z,63.88
2022-08-05T12:06:11.196Z,64.07
2022-08-05T12:07:10.273Z,64.04
2022-08-05T12:08:11.562Z,64.11
2022-08-05T12:09:20.057Z,64.04
2022-08-05T12:10:11.499Z,63.22
2022-08-05T12:11:10.189Z,61.91
2022-08-05T12:12:11.213Z,58.94
2022-08-05T12:13:16.935Z,59.80
2022-08-05T12:14:11.158Z,60.13
2022-08-05T12:15:13.884Z,59.41
2022-08-05T12:16:15.098Z,60.10
2022-08-05T12:18:02.738Z,58.22
2022-08-05T12:18:12.254Z,58.22
2022-08-05T12:19:10.114Z,58.32
2022-08-05T12:20:25.340Z,57.82
2022-08-05T12:21:11.170Z,57.26
2022-08-05T12:22:10.201Z,57.56
2022-08-05T12:23:10.202Z,58.34
2022-08-05T12:24:10.115Z,58.34
2022-08-05T12:25:10.084Z,58.64
2022-08-05T12:26:10.175Z,57.65
2022-08-05T12:27:25.034Z,57.46
2022-08-05T12:28:11.112Z,57.58
2022-08-05T12:29:16.116Z,58.50
2022-08-05T12:30:15.388Z,58.63
2022-08-05T12:31:10.068Z,58.73
2022-08-05T12:32:10.108Z,59.81
2022-08-05T12:33:27.840Z,59.45
2022-08-05T12:34:20.630Z,60.77
2022-08-05T12:35:11.065Z,64.07
2022-08-05T12:36:11.084Z,66.18
2022-08-05T12:37:10.057Z,66.18
2022-08-05T12:38:10.974Z,68.13
2022-08-05T12:39:10.040Z,67.94
2022-08-05T12:40:10.892Z,68.66
2022-08-05T12:41:13.459Z,68.70
2022-08-05T12:42:14.887Z,69.20
2022-08-05T12:43:09.956Z,69.62
2022-08-05T12:44:11.679Z,70.15
2022-08-05T12:45:09.937Z,70.68
2022-08-05T12:46:12.493Z,71.51
2022-08-05T12:47:12.532Z,72.91
2022-08-05T12:48:26.871Z,72.45
2022-08-05T12:49:13.617Z,72.55
2022-08-05T12:50:10.473Z,72.98
2022-08-05T12:52:11.190Z,72.98
2022-08-05T12:52:17.562Z,73.28
2022-08-05T12:53:10.920Z,72.68